Time;durP1;ratioP1;P1;durP2;ratioP2;P2;SDS_P1;SDS_P2;PMS_P1;PMS_P2;Temp;Humidity;BMP_temperature;BMP_pressure;BME280_temperature;BME280_humidity;BME280_pressure;Samples;Min_cycle;Max_cycle;Signal;HPM_P1;HPM_P2
2023/07/27 00:01:26;;;;;;;6.13;2.25;;;15.60;99.90;;;;;;5043688;28;20588;-59
2023/07/27 00:03:54;;;;;;;6.30;2.28;;;15.60;99.90;;;;;;5044541;28;20431;-58
2023/07/27 00:06:22;;;;;;;4.30;1.90;;;15.60;99.90;;;;;;5041501;28;20504;-62
2023/07/27 00:08:50;;;;;;;3.70;2.22;;;15.70;99.90;;;;;;5043881;28;20053;-63
2023/07/27 00:11:19;;;;;;;4.15;1.92;;;15.70;99.90;;;;;;5040969;28;20051;-62
2023/07/27 00:13:46;;;;;;;3.20;1.60;;;15.60;99.90;;;;;;5026678;28;20044;-63
2023/07/27 00:16:14;;;;;;;3.58;2.30;;;15.70;99.90;;;;;;5043450;28;20048;-62
2023/07/27 00:18:42;;;;;;;3.78;1.95;;;15.60;99.90;;;;;;5039303;28;20048;-64
2023/07/27 00:21:10;;;;;;;3.13;2.10;;;15.60;99.90;;;;;;5044702;28;20518;-64
2023/07/27 00:23:37;;;;;;;4.00;2.28;;;15.60;99.90;;;;;;5050469;28;20045;-60
2023/07/27 00:26:05;;;;;;;4.18;2.00;;;15.60;99.90;;;;;;5048413;28;20037;-61
2023/07/27 00:28:33;;;;;;;2.97;2.05;;;15.60;99.90;;;;;;5048600;28;20055;-62
2023/07/27 00:31:01;;;;;;;2.95;2.20;;;15.70;99.90;;;;;;5042851;28;20071;-63
2023/07/27 00:33:28;;;;;;;4.72;2.17;;;15.70;99.90;;;;;;5047825;28;20052;-65
2023/07/27 00:35:57;;;;;;;2.40;2.20;;;15.70;99.90;;;;;;5048320;28;20041;-65
2023/07/27 00:38:27;;;;;;;3.70;2.08;;;15.70;99.90;;;;;;5047990;28;20056;-63
2023/07/27 00:40:55;;;;;;;5.88;2.25;;;15.70;99.90;;;;;;5041947;28;20060;-65
2023/07/27 00:43:23;;;;;;;3.17;1.73;;;15.70;99.90;;;;;;5049422;28;20048;-64
2023/07/27 00:45:51;;;;;;;2.38;2.13;;;15.70;99.90;;;;;;5046303;28;20045;-61
2023/07/27 00:48:20;;;;;;;3.60;1.75;;;15.70;99.90;;;;;;5045468;28;20048;-59
2023/07/27 00:50:48;;;;;;;8.18;2.03;;;15.70;99.90;;;;;;5047791;28;20044;-60
2023/07/27 00:53:16;;;;;;;3.10;2.22;;;15.80;99.90;;;;;;5046081;28;20041;-59
2023/07/27 00:55:45;;;;;;;4.07;2.40;;;15.70;99.90;;;;;;5044767;28;20045;-60
2023/07/27 00:58:13;;;;;;;5.05;2.30;;;15.70;99.90;;;;;;5047728;28;20044;-60
2023/07/27 01:00:44;;;;;;;2.78;2.20;;;15.70;99.90;;;;;;5046296;28;20048;-58
2023/07/27 01:03:12;;;;;;;2.63;1.85;;;15.70;99.90;;;;;;5046184;28;20048;-59
2023/07/27 01:05:40;;;;;;;2.65;1.75;;;15.70;99.90;;;;;;5036577;28;20049;-58
2023/07/27 01:08:08;;;;;;;3.22;1.70;;;15.70;99.90;;;;;;5047078;28;20037;-64
2023/07/27 01:10:46;;;;;;;3.20;1.48;;;15.70;99.90;;;;;;5045777;28;20499;-64
2023/07/27 01:13:31;;;;;;;2.10;1.90;;;15.70;99.90;;;;;;5049304;28;20056;-65
2023/07/27 01:16:04;;;;;;;4.38;2.15;;;15.70;99.90;;;;;;5045525;28;20481;-62
2023/07/27 01:18:40;;;;;;;3.55;2.30;;;15.70;99.90;;;;;;5044162;28;20041;-63
2023/07/27 01:21:26;;;;;;;3.65;1.60;;;15.70;99.90;;;;;;5047376;28;20041;-64
2023/07/27 01:24:28;;;;;;;3.00;1.67;;;15.70;99.90;;;;;;5043491;28;20045;-65
2023/07/27 01:27:25;;;;;;;3.20;1.30;;;15.70;99.90;;;;;;5045753;28;20381;-62
2023/07/27 01:30:02;;;;;;;2.20;2.00;;;15.70;99.90;;;;;;5044806;28;20060;-64
2023/07/27 01:32:33;;;;;;;4.43;2.40;;;15.70;99.90;;;;;;5041408;28;20048;-65
2023/07/27 01:35:04;;;;;;;8.88;2.90;;;15.80;99.90;;;;;;5045855;28;20033;-59
2023/07/27 01:37:34;;;;;;;2.85;1.45;;;15.70;99.90;;;;;;5048591;28;20063;-63
2023/07/27 01:40:05;;;;;;;2.58;1.75;;;15.70;99.90;;;;;;5049474;28;20045;-65
2023/07/27 01:42:33;;;;;;;3.95;1.90;;;15.80;99.90;;;;;;5049456;28;20045;-58
2023/07/27 01:45:02;;;;;;;1.90;1.45;;;15.80;99.90;;;;;;5049203;28;20045;-60
2023/07/27 01:47:30;;;;;;;6.93;1.80;;;15.80;99.90;;;;;;5029753;28;20053;-62
2023/07/27 01:49:59;;;;;;;1.80;1.70;;;15.80;99.90;;;;;;5050758;28;20052;-61
2023/07/27 01:52:28;;;;;;;4.80;1.58;;;15.90;99.90;;;;;;5047460;28;20045;-59
2023/07/27 01:54:57;;;;;;;1.60;1.50;;;15.80;99.90;;;;;;5050497;28;20044;-63
2023/07/27 01:57:24;;;;;;;2.47;1.58;;;15.80;99.90;;;;;;5053187;28;20040;-59
2023/07/27 01:59:53;;;;;;;1.83;1.73;;;15.80;99.90;;;;;;5052176;28;20057;-59
2023/07/27 02:02:21;;;;;;;2.30;2.10;;;15.90;99.90;;;;;;5053045;28;20033;-59
2023/07/27 02:04:50;;;;;;;2.00;1.70;;;15.80;99.90;;;;;;5053016;28;20057;-62
2023/07/27 02:07:19;;;;;;;;;;;15.90;99.90;;;;;;5036949;28;20436;-59
2023/07/27 02:09:46;;;;;;;1.88;1.48;;;15.90;99.90;;;;;;5053054;28;20292;-61
2023/07/27 02:12:38;;;;;;;2.28;1.95;;;15.90;99.90;;;;;;5052545;28;20040;-59
2023/07/27 02:15:13;;;;;;;3.83;2.00;;;15.90;99.90;;;;;;5050423;28;20484;-59
2023/07/27 02:17:46;;;;;;;3.33;1.60;;;15.90;99.90;;;;;;5054135;28;20044;-61
2023/07/27 02:20:16;;;;;;;4.53;1.52;;;15.90;99.90;;;;;;5052027;28;20052;-65
2023/07/27 02:22:46;;;;;;;7.13;1.58;;;16.00;99.90;;;;;;5051832;28;20049;-60
2023/07/27 02:25:14;;;;;;;7.88;1.60;;;16.00;99.90;;;;;;5053165;28;20040;-58
2023/07/27 02:27:44;;;;;;;2.75;1.80;;;16.00;99.90;;;;;;5019911;28;20060;-59
2023/07/27 02:30:12;;;;;;;3.38;1.63;;;16.00;99.90;;;;;;5053895;28;20041;-58
2023/07/27 02:32:40;;;;;;;1.48;1.35;;;16.00;99.90;;;;;;5052475;28;20037;-60
2023/07/27 02:35:08;;;;;;;6.25;1.63;;;16.00;99.90;;;;;;5052480;28;20044;-60
2023/07/27 02:37:36;;;;;;;1.83;1.38;;;16.00;99.90;;;;;;5052707;28;20041;-59
2023/07/27 02:40:05;;;;;;;2.65;1.40;;;16.00;99.90;;;;;;5052745;28;20451;-65
2023/07/27 02:42:33;;;;;;;2.72;1.77;;;16.10;99.90;;;;;;5052447;28;20497;-64
2023/07/27 02:45:01;;;;;;;1.75;1.65;;;16.10;99.90;;;;;;5053800;28;20048;-65
2023/07/27 02:47:34;;;;;;;5.03;1.95;;;16.10;99.90;;;;;;5051959;28;20041;-65
2023/07/27 02:50:02;;;;;;;5.07;1.58;;;16.10;99.90;;;;;;5052282;28;20449;-65
2023/07/27 02:52:32;;;;;;;1.70;1.52;;;16.10;99.90;;;;;;5049837;28;20040;-63
2023/07/27 02:55:04;;;;;;;1.98;1.20;;;16.10;99.90;;;;;;5046608;28;20052;-63
2023/07/27 02:57:32;;;;;;;2.17;1.20;;;16.10;99.90;;;;;;5042936;28;20037;-63
2023/07/27 03:00:00;;;;;;;1.10;1.00;;;16.10;99.90;;;;;;5049839;28;20044;-66
2023/07/27 03:02:30;;;;;;;;;;;16.10;99.90;;;;;;5052701;28;20048;-63
2023/07/27 03:05:03;;;;;;;1.30;1.20;;;16.10;99.90;;;;;;5051420;28;19921;-63
2023/07/27 03:07:31;;;;;;;3.47;1.10;;;16.10;99.90;;;;;;5047080;28;20056;-65
2023/07/27 03:09:59;;;;;;;1.60;1.08;;;16.10;99.90;;;;;;5052223;28;20388;-66
2023/07/27 03:12:27;;;;;;;5.05;1.05;;;16.20;99.90;;;;;;5035467;28;20045;-66
2023/07/27 03:14:54;;;;;;;2.42;1.00;;;16.20;99.90;;;;;;5053551;28;20045;-66
2023/07/27 03:17:22;;;;;;;3.55;0.95;;;16.20;99.90;;;;;;5051802;28;20076;-67
2023/07/27 03:19:50;;;;;;;0.70;0.70;;;16.20;99.90;;;;;;5052065;28;20048;-66
2023/07/27 03:22:18;;;;;;;0.90;0.90;;;16.20;99.90;;;;;;5048977;28;20041;-60
2023/07/27 03:24:46;;;;;;;0.80;0.80;;;16.20;99.90;;;;;;5051637;28;20045;-61
2023/07/27 03:27:14;;;;;;;1.00;0.70;;;16.20;99.90;;;;;;5052804;28;20056;-60
2023/07/27 03:29:41;;;;;;;2.25;0.88;;;16.20;99.90;;;;;;5051823;28;20515;-58
2023/07/27 03:32:09;;;;;;;0.90;0.88;;;16.20;99.90;;;;;;5035703;28;20041;-67
2023/07/27 03:34:36;;;;;;;0.73;0.50;;;16.30;99.90;;;;;;5051802;28;20048;-65
2023/07/27 03:37:04;;;;;;;1.50;0.70;;;16.30;99.90;;;;;;5050855;28;20044;-66
2023/07/27 03:39:32;;;;;;;2.83;0.30;;;16.30;99.90;;;;;;5052644;28;20212;-62
2023/07/27 03:42:00;;;;;;;0.30;0.30;;;16.30;99.90;;;;;;5051405;28;20045;-65
2023/07/27 03:44:28;;;;;;;1.73;0.25;;;16.30;99.90;;;;;;5051428;28;20036;-66
2023/07/27 03:46:56;;;;;;;1.55;0.20;;;16.40;99.90;;;;;;5051364;28;20388;-65
2023/07/27 03:49:24;;;;;;;4.88;0.93;;;16.40;99.90;;;;;;5052489;28;20041;-65
2023/07/27 03:51:52;;;;;;;3.83;0.30;;;16.40;99.90;;;;;;5035105;28;20488;-66
2023/07/27 03:54:20;;;;;;;1.58;0.10;;;16.50;99.90;;;;;;5052179;28;20045;-66
2023/07/27 03:56:48;;;;;;;1.00;0.28;;;16.50;99.90;;;;;;5051178;28;20404;-64
2023/07/27 03:59:15;;;;;;;0.10;0.10;;;16.50;99.90;;;;;;5051052;28;20037;-64
2023/07/27 04:01:43;;;;;;;0.93;0.13;;;16.50;99.90;;;;;;5047806;28;20679;-64
2023/07/27 04:04:23;;;;;;;0.10;0.10;;;16.50;99.90;;;;;;5045652;28;20061;-63
2023/07/27 04:06:51;;;;;;;1.40;0.10;;;16.50;99.90;;;;;;5052194;28;20064;-64
2023/07/27 04:09:19;;;;;;;0.20;0.20;;;16.50;99.90;;;;;;5050220;28;20041;-63
2023/07/27 04:11:47;;;;;;;0.30;0.10;;;16.60;99.90;;;;;;5051494;28;20461;-62
2023/07/27 04:14:15;;;;;;;3.05;0.20;;;16.60;99.90;;;;;;5052286;28;20064;-60
2023/07/27 04:16:43;;;;;;;1.23;0.20;;;16.60;99.90;;;;;;5050747;28;20049;-66
2023/07/27 04:19:11;;;;;;;0.20;0.03;;;16.60;99.90;;;;;;5049146;28;20507;-63
2023/07/27 04:21:39;;;;;;;0.10;0.10;;;16.60;99.90;;;;;;5050662;28;20048;-65
2023/07/27 04:24:07;;;;;;;0.35;0.10;;;15.30;99.90;;;;;;5051577;28;20559;-64
2023/07/27 04:26:35;;;;;;;0.47;0.10;;;16.60;99.90;;;;;;5047111;28;20033;-64
2023/07/27 04:29:03;;;;;;;2.30;0.10;;;16.60;99.90;;;;;;5050508;28;20412;-60
2023/07/27 04:31:30;;;;;;;0.40;0.20;;;16.70;99.90;;;;;;5053078;28;20592;-61
2023/07/27 04:33:58;;;;;;;0.77;0.25;;;16.60;99.90;;;;;;5048870;28;20052;-62
2023/07/27 04:36:25;;;;;;;4.20;0.10;;;16.60;99.90;;;;;;5046797;28;20044;-63
2023/07/27 04:38:53;;;;;;;0.95;0.20;;;16.70;99.90;;;;;;5051486;28;20041;-65
2023/07/27 04:41:20;;;;;;;3.67;0.10;;;16.70;99.90;;;;;;5050240;28;20051;-59
2023/07/27 04:43:48;;;;;;;1.73;0.10;;;16.70;99.90;;;;;;5049575;28;20056;-59
2023/07/27 04:46:16;;;;;;;0.10;0.10;;;16.70;99.90;;;;;;5045689;28;20037;-60
2023/07/27 04:48:43;;;;;;;0.20;0.17;;;16.70;99.90;;;;;;5039893;28;20052;-60
2023/07/27 04:51:11;;;;;;;2.63;0.22;;;16.70;99.90;;;;;;5047796;28;20040;-59
2023/07/27 04:53:39;;;;;;;0.80;0.15;;;16.70;99.90;;;;;;5046535;28;20053;-59
2023/07/27 04:56:07;;;;;;;1.98;0.10;;;16.70;99.90;;;;;;5046074;28;20037;-63
2023/07/27 04:58:34;;;;;;;0.30;0.20;;;16.70;99.90;;;;;;5046229;28;20041;-60
2023/07/27 05:01:02;;;;;;;0.20;0.20;;;16.80;99.90;;;;;;5048829;28;20037;-62
2023/07/27 05:03:30;;;;;;;1.45;0.20;;;16.80;99.90;;;;;;5033643;28;20053;-60
2023/07/27 05:05:58;;;;;;;1.10;0.25;;;16.80;99.90;;;;;;5036729;28;20646;-62
2023/07/27 05:08:25;;;;;;;1.20;0.20;;;16.80;99.90;;;;;;5042226;28;20048;-61
2023/07/27 05:10:53;;;;;;;0.20;0.20;;;16.80;99.90;;;;;;5045053;28;20526;-65
2023/07/27 05:13:21;;;;;;;0.43;0.10;;;16.80;99.90;;;;;;5046453;28;20041;-61
2023/07/27 05:15:49;;;;;;;0.10;0.00;;;16.80;99.90;;;;;;5044407;28;20045;-65
2023/07/27 05:18:16;;;;;;;1.40;0.30;;;16.80;99.90;;;;;;5044332;28;20863;-64
2023/07/27 05:20:44;;;;;;;0.15;0.08;;;16.80;99.90;;;;;;5044428;28;20060;-65
2023/07/27 05:23:11;;;;;;;2.15;0.17;;;16.90;99.90;;;;;;5046239;28;20045;-65
2023/07/27 05:25:39;;;;;;;0.10;0.10;;;16.90;99.90;;;;;;5040427;28;20508;-62
2023/07/27 05:28:07;;;;;;;2.28;0.17;;;16.90;99.90;;;;;;5040572;28;20049;-62
2023/07/27 05:30:34;;;;;;;0.25;0.00;;;16.90;99.90;;;;;;5049588;28;20036;-59
2023/07/27 05:33:03;;;;;;;1.48;0.10;;;17.00;99.90;;;;;;5048712;28;20370;-62
2023/07/27 05:35:31;;;;;;;0.40;0.20;;;17.00;99.90;;;;;;5049568;28;20044;-61
2023/07/27 05:37:59;;;;;;;3.42;0.68;;;17.00;99.90;;;;;;5051498;28;20052;-63
2023/07/27 05:40:27;;;;;;;1.35;0.20;;;17.10;99.90;;;;;;5051511;28;20033;-64
2023/07/27 05:42:54;;;;;;;0.15;0.10;;;17.10;99.90;;;;;;5053160;28;20049;-63
2023/07/27 05:45:22;;;;;;;1.00;0.30;;;17.10;99.90;;;;;;5052606;28;20045;-63
2023/07/27 05:47:49;;;;;;;0.22;0.10;;;17.20;99.90;;;;;;5048863;28;20056;-65
2023/07/27 05:50:17;;;;;;;0.10;0.10;;;17.20;99.90;;;;;;5052428;28;20045;-66
2023/07/27 05:52:45;;;;;;;0.28;0.20;;;17.20;99.90;;;;;;5048032;28;20049;-65
2023/07/27 05:55:13;;;;;;;0.13;0.13;;;17.30;99.90;;;;;;5051328;28;20515;-64
2023/07/27 05:57:41;;;;;;;1.95;0.17;;;17.30;99.90;;;;;;5048706;28;20052;-59
2023/07/27 06:00:09;;;;;;;0.95;0.20;;;17.30;99.90;;;;;;5049312;28;20064;-60
2023/07/27 06:02:37;;;;;;;0.17;0.10;;;17.30;99.90;;;;;;5050847;28;20037;-62
2023/07/27 06:05:05;;;;;;;0.20;0.20;;;17.30;99.90;;;;;;5050665;28;20065;-58
2023/07/27 06:07:33;;;;;;;0.20;0.15;;;17.30;99.90;;;;;;5052283;28;20232;-58
2023/07/27 06:10:01;;;;;;;1.05;0.10;;;17.30;99.90;;;;;;5054151;28;20500;-60
2023/07/27 06:12:28;;;;;;;1.15;0.10;;;17.30;99.90;;;;;;5049756;28;20037;-58
2023/07/27 06:14:57;;;;;;;0.65;0.20;;;17.30;99.90;;;;;;5053009;28;20048;-61
2023/07/27 06:17:27;;;;;;;0.52;0.15;;;17.40;99.90;;;;;;5048113;28;20308;-58
2023/07/27 06:19:55;;;;;;;0.20;0.10;;;17.40;99.90;;;;;;5049518;28;20041;-58
2023/07/27 06:22:24;;;;;;;1.65;0.30;;;17.50;99.90;;;;;;5045625;28;20042;-59
2023/07/27 06:24:52;;;;;;;1.20;0.20;;;17.50;99.90;;;;;;5052982;28;20055;-58
2023/07/27 06:27:20;;;;;;;1.30;0.20;;;17.60;99.90;;;;;;5049315;28;20041;-59
2023/07/27 06:29:48;;;;;;;1.15;0.10;;;17.60;99.90;;;;;;5048803;28;20051;-60
2023/07/27 06:32:15;;;;;;;0.68;0.20;;;17.60;99.90;;;;;;5053834;28;20045;-59
2023/07/27 06:34:43;;;;;;;0.75;0.10;;;17.60;99.90;;;;;;5049412;28;20508;-58
2023/07/27 06:37:11;;;;;;;0.10;0.10;;;17.60;99.90;;;;;;5052848;28;20618;-59
2023/07/27 06:39:39;;;;;;;1.60;0.20;;;17.70;99.90;;;;;;5052575;28;20052;-59
2023/07/27 06:42:07;;;;;;;0.25;0.10;;;17.70;99.90;;;;;;5049847;28;20037;-60
2023/07/27 06:44:35;;;;;;;0.15;0.10;;;17.80;99.90;;;;;;5049016;28;20049;-59
2023/07/27 06:47:03;;;;;;;3.45;0.40;;;17.80;99.90;;;;;;5048903;28;20049;-58
2023/07/27 06:49:34;;;;;;;0.20;0.13;;;17.90;99.90;;;;;;5050397;28;20500;-64
2023/07/27 06:52:01;;;;;;;1.65;0.10;;;18.00;99.90;;;;;;5051276;28;20040;-63
2023/07/27 06:54:29;;;;;;;0.52;0.10;;;18.00;99.90;;;;;;5048996;28;20500;-65
2023/07/27 06:56:57;;;;;;;0.20;0.10;;;18.10;99.90;;;;;;5047796;28;20053;-65
2023/07/27 06:59:25;;;;;;;7.53;0.70;;;18.10;99.90;;;;;;5046226;28;20045;-63
2023/07/27 07:01:57;;;;;;;0.47;0.20;;;18.10;99.90;;;;;;5047307;28;20045;-64
2023/07/27 07:04:25;;;;;;;1.25;0.15;;;18.20;99.90;;;;;;5040843;28;20404;-64
2023/07/27 07:06:52;;;;;;;0.10;0.10;;;18.20;99.90;;;;;;5044073;28;20509;-65
2023/07/27 07:09:21;;;;;;;0.55;0.20;;;18.20;99.90;;;;;;5046442;28;20056;-63
2023/07/27 07:11:49;;;;;;;0.28;0.20;;;18.20;99.90;;;;;;5046049;28;20404;-64
2023/07/27 07:14:17;;;;;;;1.05;0.15;;;18.20;99.90;;;;;;5045782;28;20431;-66
2023/07/27 07:16:45;;;;;;;0.20;0.20;;;18.20;99.90;;;;;;5044690;28;20386;-60
2023/07/27 07:19:12;;;;;;;0.88;0.22;;;18.20;99.90;;;;;;5045074;28;20500;-66
2023/07/27 07:21:41;;;;;;;0.10;0.10;;;18.20;99.90;;;;;;5037949;28;20048;-59
2023/07/27 07:24:08;;;;;;;0.90;0.20;;;18.30;99.90;;;;;;5044942;28;20063;-66
2023/07/27 07:26:36;;;;;;;0.68;0.20;;;18.60;99.90;;;;;;5045810;28;20052;-65
2023/07/27 07:29:07;;;;;;;0.28;0.20;;;18.70;99.90;;;;;;5046524;28;20060;-60
2023/07/27 07:31:40;;;;;;;0.70;0.38;;;18.70;99.90;;;;;;5048277;28;20049;-61
2023/07/27 07:34:07;;;;;;;0.20;0.20;;;18.70;99.90;;;;;;5045785;28;20052;-62
2023/07/27 07:36:35;;;;;;;0.95;0.20;;;18.80;99.90;;;;;;5045874;28;20538;-61
2023/07/27 07:39:03;;;;;;;1.08;0.65;;;19.10;99.90;;;;;;5047710;28;20044;-60
2023/07/27 07:41:31;;;;;;;0.40;0.10;;;18.90;99.90;;;;;;5046098;28;20052;-65
2023/07/27 07:43:58;;;;;;;0.30;0.10;;;18.90;99.90;;;;;;5045394;28;20037;-61
2023/07/27 07:46:26;;;;;;;0.45;0.22;;;18.90;99.90;;;;;;5043350;28;20055;-62
2023/07/27 07:48:54;;;;;;;3.05;0.22;;;18.90;99.90;;;;;;5040802;28;20055;-66
2023/07/27 07:51:22;;;;;;;0.57;0.25;;;19.00;99.90;;;;;;5039843;28;20048;-67
2023/07/27 07:53:50;;;;;;;0.77;0.20;;;19.10;99.90;;;;;;5039219;28;20040;-66
2023/07/27 07:56:18;;;;;;;0.10;0.10;;;19.20;99.90;;;;;;5039079;28;20037;-61
2023/07/27 07:58:46;;;;;;;2.47;0.40;;;19.30;99.90;;;;;;5045977;28;20049;-65
2023/07/27 08:01:13;;;;;;;2.47;0.43;;;19.30;99.90;;;;;;5042671;28;20041;-66
2023/07/27 08:03:41;;;;;;;1.48;0.20;;;19.40;99.90;;;;;;5043604;28;20041;-66
2023/07/27 08:06:12;;;;;;;0.65;0.20;;;19.40;99.90;;;;;;5038066;28;20068;-60
2023/07/27 08:08:40;;;;;;;0.10;0.10;;;19.50;99.90;;;;;;5041413;28;21155;-66
2023/07/27 08:11:07;;;;;;;0.13;0.10;;;19.60;99.90;;;;;;5041165;28;20468;-62
2023/07/27 08:13:36;;;;;;;0.63;0.10;;;19.80;99.90;;;;;;5045757;28;20053;-65
2023/07/27 08:16:04;;;;;;;0.40;0.20;;;19.70;99.90;;;;;;5046115;28;20052;-64
2023/07/27 08:18:32;;;;;;;0.68;0.20;;;19.80;99.90;;;;;;5036017;28;20049;-60
2023/07/27 08:21:06;;;;;;;1.33;0.10;;;19.90;99.90;;;;;;5047218;28;20037;-60
2023/07/27 08:23:34;;;;;;;0.47;0.20;;;19.90;99.90;;;;;;5038292;28;20045;-59
2023/07/27 08:26:07;;;;;;;1.15;0.10;;;19.90;99.90;;;;;;5036081;28;20115;-62
2023/07/27 08:28:35;;;;;;;1.65;0.30;;;19.90;99.90;;;;;;5047342;28;20041;-66
2023/07/27 08:31:08;;;;;;;0.75;0.17;;;20.00;99.90;;;;;;5042776;28;20057;-60
2023/07/27 08:33:36;;;;;;;2.20;0.32;;;20.00;99.90;;;;;;5038391;28;20405;-66
2023/07/27 08:36:04;;;;;;;2.08;0.10;;;19.90;99.90;;;;;;5047405;28;20045;-63
2023/07/27 08:38:32;;;;;;;0.65;0.20;;;19.90;99.90;;;;;;5048485;28;20049;-65
2023/07/27 08:41:01;;;;;;;0.22;0.10;;;19.80;99.90;;;;;;5049083;28;20488;-60
2023/07/27 08:43:29;;;;;;;3.50;0.10;;;19.80;99.90;;;;;;5046165;28;20037;-62
2023/07/27 08:45:56;;;;;;;1.65;0.30;;;19.80;99.90;;;;;;5047783;28;20064;-64
2023/07/27 08:48:25;;;;;;;0.75;0.20;;;19.80;99.90;;;;;;5038687;28;20056;-61
2023/07/27 08:50:53;;;;;;;0.10;0.10;;;19.90;99.90;;;;;;5046501;28;20055;-64
2023/07/27 08:53:21;;;;;;;1.50;0.20;;;19.90;99.90;;;;;;5047086;28;20036;-64
2023/07/27 08:55:49;;;;;;;0.95;0.20;;;19.90;99.90;;;;;;5047282;28;20045;-64
2023/07/27 08:58:18;;;;;;;1.88;0.30;;;19.90;99.90;;;;;;5047304;28;20049;-59
2023/07/27 09:00:46;;;;;;;2.47;0.22;;;19.90;99.90;;;;;;5045122;28;20048;-60
2023/07/27 09:03:13;;;;;;;0.43;0.10;;;19.90;99.90;;;;;;5041506;28;20534;-66
2023/07/27 09:05:55;;;;;;;0.25;0.17;;;20.00;99.90;;;;;;5047037;28;20065;-58
2023/07/27 09:08:26;;;;;;;0.10;0.10;;;20.00;99.90;;;;;;5042295;28;20084;-59
2023/07/27 09:10:53;;;;;;;1.15;0.20;;;20.10;99.90;;;;;;5038729;28;20535;-58
2023/07/27 09:13:28;;;;;;;1.02;0.70;;;20.10;99.90;;;;;;5043724;28;20040;-61
2023/07/27 09:15:56;;;;;;;0.65;0.30;;;20.20;99.90;;;;;;5047160;28;20067;-61
2023/07/27 09:18:25;;;;;;;0.30;0.30;;;20.20;99.90;;;;;;5044505;28;20402;-60
2023/07/27 09:20:55;;;;;;;3.78;0.40;;;20.20;99.90;;;;;;5044148;28;20037;-61
2023/07/27 09:23:22;;;;;;;1.08;0.45;;;20.30;99.90;;;;;;5038386;28;20044;-66
2023/07/27 09:25:56;;;;;;;0.30;0.20;;;20.30;99.90;;;;;;5043743;28;20045;-63
2023/07/27 09:28:26;;;;;;;2.75;0.35;;;20.50;99.90;;;;;;5047562;28;20041;-61
2023/07/27 09:31:02;;;;;;;1.02;0.25;;;20.60;99.90;;;;;;5046926;28;20488;-62
2023/07/27 09:33:30;;;;;;;0.20;0.20;;;20.80;99.90;;;;;;5043293;28;20504;-65
2023/07/27 09:35:58;;;;;;;0.30;0.20;;;20.90;99.90;;;;;;5043651;28;20056;-59
2023/07/27 09:38:27;;;;;;;0.90;0.20;;;21.10;99.90;;;;;;5043941;28;20063;-62
2023/07/27 09:40:55;;;;;;;0.10;0.10;;;21.20;99.90;;;;;;5041453;28;20394;-59
2023/07/27 09:43:26;;;;;;;0.10;0.10;;;21.30;99.90;;;;;;5043494;28;20036;-58
2023/07/27 09:45:58;;;;;;;0.45;0.15;;;21.40;99.90;;;;;;5043127;28;20061;-60
2023/07/27 09:48:28;;;;;;;0.60;0.30;;;21.40;99.90;;;;;;5044545;28;20481;-59
2023/07/27 09:50:59;;;;;;;0.17;0.10;;;21.50;99.90;;;;;;5047348;28;20052;-58
2023/07/27 09:53:30;;;;;;;2.13;0.17;;;21.50;99.90;;;;;;5046840;28;20048;-59
2023/07/27 09:55:58;;;;;;;0.43;0.20;;;21.60;99.90;;;;;;5040406;28;20560;-59
2023/07/27 09:58:28;;;;;;;1.35;0.20;;;21.70;99.90;;;;;;5043597;28;20037;-61
2023/07/27 10:00:55;;;;;;;2.20;0.47;;;21.80;99.90;;;;;;5047652;28;20045;-60
2023/07/27 10:03:23;;;;;;;0.63;0.20;;;21.70;99.90;;;;;;5046515;28;20320;-59
2023/07/27 10:05:51;;;;;;;1.45;0.40;;;21.60;99.90;;;;;;5046992;28;20051;-59
2023/07/27 10:08:19;;;;;;;3.03;0.60;;;21.20;99.90;;;;;;5046837;28;20056;-60
2023/07/27 10:10:53;;;;;;;0.68;0.20;;;20.50;99.90;;;;;;5044565;28;20053;-57
2023/07/27 10:13:23;;;;;;;1.63;0.35;;;20.50;99.90;;;;;;5045244;28;20056;-60
2023/07/27 10:15:56;;;;;;;0.93;0.30;;;20.20;99.90;;;;;;5041852;28;20488;-65
2023/07/27 10:18:26;;;;;;;2.22;0.30;;;20.00;99.90;;;;;;5040759;28;20041;-66
2023/07/27 10:21:22;;;;;;;1.50;0.40;;;19.80;99.90;;;;;;5049527;28;20056;-63
2023/07/27 10:23:58;;;;;;;2.92;0.40;;;19.60;99.90;;;;;;5050127;28;20605;-66
2023/07/27 10:26:46;;;;;;;0.52;0.40;;;19.50;99.90;;;;;;5047797;28;20049;-62
2023/07/27 10:29:15;;;;;;;0.82;0.30;;;19.40;99.90;;;;;;5048830;28;20692;-66
2023/07/27 10:31:45;;;;;;;0.35;0.35;;;19.40;99.90;;;;;;5051562;28;20048;-61
2023/07/27 10:34:17;;;;;;;1.45;0.70;;;19.40;99.90;;;;;;5050143;28;20064;-58
2023/07/27 10:37:00;;;;;;;0.85;0.60;;;19.40;99.90;;;;;;5046550;28;20037;-58
2023/07/27 10:39:30;;;;;;;2.78;0.85;;;19.50;99.90;;;;;;5044856;28;20048;-66
2023/07/27 10:42:07;;;;;;;5.10;0.90;;;19.70;99.90;;;;;;5050118;28;20057;-65
2023/07/27 10:44:43;;;;;;;2.70;0.75;;;19.80;99.90;;;;;;5048230;28;20055;-66
2023/07/27 10:47:13;;;;;;;0.57;0.57;;;20.00;99.90;;;;;;5045673;28;20041;-61
2023/07/27 10:49:46;;;;;;;3.05;0.90;;;20.20;99.90;;;;;;5049810;28;20052;-64
2023/07/27 10:52:36;;;;;;;2.85;0.70;;;20.40;99.90;;;;;;5048446;28;20041;-69
2023/07/27 10:55:06;;;;;;;0.50;0.50;;;20.40;99.90;;;;;;5047557;28;20484;-69
2023/07/27 10:57:34;;;;;;;5.35;0.75;;;20.60;99.90;;;;;;5040396;28;20052;-68
2023/07/27 11:00:06;;;;;;;1.58;0.70;;;20.90;99.90;;;;;;5046572;28;20045;-67
2023/07/27 11:02:34;;;;;;;0.65;0.40;;;21.00;99.90;;;;;;5052058;28;20036;-67
2023/07/27 11:05:07;;;;;;;5.05;1.17;;;21.50;99.90;;;;;;5043728;28;20335;-60
2023/07/27 11:07:39;;;;;;;4.22;1.35;;;21.50;99.90;;;;;;5047068;28;20041;-63
2023/07/27 11:10:15;;;;;;;0.73;0.30;;;21.80;99.90;;;;;;5049146;28;20603;-67
2023/07/27 11:12:54;;;;;;;0.98;0.35;;;21.90;99.90;;;;;;5045827;28;20704;-66
2023/07/27 11:15:24;;;;;;;1.10;0.40;;;22.10;99.90;;;;;;5047574;28;20044;-67
2023/07/27 11:17:56;;;;;;;;;;;22.20;99.90;;;;;;5047622;28;20044;-63
2023/07/27 11:20:26;;;;;;;1.48;0.68;;;22.30;99.90;;;;;;5050176;28;19936;-58
2023/07/27 11:22:55;;;;;;;;;;;22.40;99.90;;;;;;5046103;28;20056;-62
2023/07/27 11:25:24;;;;;;;1.90;0.30;;;22.30;99.90;;;;;;5049093;28;20284;-63
2023/07/27 11:27:53;;;;;;;2.67;0.65;;;22.20;99.90;;;;;;5045790;28;20033;-60
2023/07/27 11:30:22;;;;;;;2.03;0.40;;;22.20;99.90;;;;;;5049585;28;20053;-58
2023/07/27 11:33:04;;;;;;;0.47;0.30;;;22.00;99.90;;;;;;5049151;28;20048;-63
2023/07/27 11:35:33;;;;;;;3.13;0.40;;;21.80;99.90;;;;;;5043595;28;20132;-60
2023/07/27 11:38:01;;;;;;;0.40;0.40;;;21.80;99.90;;;;;;5047371;28;20477;-61
2023/07/27 11:40:30;;;;;;;1.17;0.47;;;21.60;99.90;;;;;;5049056;28;20484;-60
2023/07/27 11:43:02;;;;;;;3.15;0.60;;;21.50;99.90;;;;;;5048663;28;20061;-57
2023/07/27 11:45:34;;;;;;;2.10;0.65;;;21.40;99.90;;;;;;5046584;28;20411;-59
2023/07/27 11:48:04;;;;;;;2.15;0.40;;;21.30;99.90;;;;;;5043803;28;20044;-58
2023/07/27 11:50:37;;;;;;;2.58;0.45;;;21.20;99.90;;;;;;5034295;28;20038;-56
2023/07/27 11:53:11;;;;;;;1.55;0.50;;;21.20;99.90;;;;;;5048011;28;20053;-60
2023/07/27 11:55:56;;;;;;;0.93;0.52;;;21.30;99.90;;;;;;5045784;28;20049;-61
2023/07/27 11:58:27;;;;;;;0.50;0.40;;;21.30;99.90;;;;;;5043602;28;20033;-62
2023/07/27 12:00:55;;;;;;;1.33;0.40;;;21.40;99.90;;;;;;5042558;28;20048;-62
2023/07/27 12:03:25;;;;;;;6.25;0.50;;;21.50;99.90;;;;;;5048200;28;20055;-60
2023/07/27 12:05:57;;;;;;;0.43;0.43;;;21.70;99.90;;;;;;5043028;28;20041;-61
2023/07/27 12:08:25;;;;;;;0.30;0.30;;;21.60;99.90;;;;;;5048633;28;20071;-60
2023/07/27 12:11:01;;;;;;;0.40;0.40;;;21.90;99.90;;;;;;5047356;28;20060;-60
2023/07/27 12:13:33;;;;;;;0.20;0.20;;;21.90;99.90;;;;;;5046963;28;20373;-60
2023/07/27 12:16:06;;;;;;;2.75;0.40;;;22.00;99.90;;;;;;5048416;28;20037;-60
2023/07/27 12:18:37;;;;;;;3.03;0.40;;;22.00;99.90;;;;;;5048286;28;20469;-61
2023/07/27 12:21:08;;;;;;;1.55;0.40;;;21.90;99.90;;;;;;5048587;28;20037;-61
2023/07/27 12:23:38;;;;;;;3.75;0.57;;;21.90;99.90;;;;;;5046537;28;20396;-61
2023/07/27 12:26:09;;;;;;;1.23;0.30;;;21.80;99.90;;;;;;5046595;28;20048;-62
2023/07/27 12:28:40;;;;;;;2.78;0.40;;;21.60;99.90;;;;;;5039328;28;20041;-60
2023/07/27 12:31:09;;;;;;;1.13;0.40;;;21.60;99.90;;;;;;5047173;28;20044;-61
2023/07/27 12:33:40;;;;;;;0.30;0.30;;;21.60;99.90;;;;;;5057887;28;20049;-61
2023/07/27 12:36:08;;;;;;;1.90;0.40;;;21.70;99.90;;;;;;5048134;28;20045;-69
2023/07/27 12:38:35;;;;;;;2.85;0.50;;;22.00;99.90;;;;;;5047180;28;20037;-68
2023/07/27 12:41:06;;;;;;;0.82;0.40;;;22.30;99.90;;;;;;5044015;28;20048;-64
2023/07/27 12:43:34;;;;;;;0.75;0.40;;;22.60;99.90;;;;;;5040460;28;20493;-65
2023/07/27 12:46:02;;;;;;;5.47;0.68;;;22.80;99.90;;;;;;5040684;28;20045;-67
2023/07/27 12:48:30;;;;;;;1.77;0.50;;;22.90;99.90;;;;;;5037383;28;20045;-62
2023/07/27 12:51:00;;;;;;;0.65;0.60;;;22.90;99.90;;;;;;5045783;28;20049;-65
2023/07/27 12:53:28;;;;;;;4.47;0.90;;;22.90;99.90;;;;;;5046909;28;20396;-62
2023/07/27 12:55:55;;;;;;;1.10;0.80;;;23.00;99.90;;;;;;5043764;28;20211;-60
2023/07/27 12:58:23;;;;;;;3.13;0.80;;;22.90;99.90;;;;;;5044577;28;20060;-62
2023/07/27 13:00:51;;;;;;;2.63;0.70;;;22.80;99.90;;;;;;5041622;28;20056;-58